createdAt,value
2023-01-07T00:02:22.560Z,73.50
2023-01-07T00:04:49.293Z,72.78
2023-01-07T00:07:15.961Z,73.04
2023-01-07T00:09:42.723Z,72.39
2023-01-07T00:12:09.402Z,71.87
2023-01-07T00:14:36.295Z,71.11
2023-01-07T00:17:03.474Z,70.76
2023-01-07T00:19:30.454Z,69.81
2023-01-07T00:21:57.167Z,73.42
2023-01-07T00:24:23.856Z,71.97
2023-01-07T00:26:50.586Z,71.15
2023-01-07T00:29:18.760Z,70.40
2023-01-07T00:31:45.641Z,70.21
2023-01-07T00:34:13.713Z,72.13
2023-01-07T00:36:42.344Z,70.74
2023-01-07T00:39:19.555Z,69.96
2023-01-07T00:42:04.594Z,68.97
2023-01-07T00:44:31.701Z,68.86
2023-01-07T00:46:58.926Z,70.34
2023-01-07T00:49:25.722Z,69.34
2023-01-07T00:51:52.503Z,69.22
2023-01-07T00:54:19.222Z,68.82
2023-01-07T00:56:45.953Z,70.17
2023-01-07T00:59:12.654Z,70.73
2023-01-07T01:01:39.425Z,70.67
2023-01-07T01:04:08.344Z,72.32
2023-01-07T01:06:35.120Z,73.20
2023-01-07T01:09:02.404Z,72.61
2023-01-07T01:11:29.138Z,72.14
2023-01-07T01:13:55.883Z,72.22
2023-01-07T01:16:22.703Z,72.97
2023-01-07T01:18:49.419Z,73.43
2023-01-07T01:21:16.131Z,72.58
2023-01-07T01:23:43.374Z,74.61
2023-01-07T01:26:11.899Z,74.05
2023-01-07T01:28:39.106Z,74.68
2023-01-07T01:31:06.018Z,79.95
2023-01-07T01:33:32.786Z,77.62
2023-01-07T01:35:59.517Z,75.52
2023-01-07T01:38:26.153Z,74.39
2023-01-07T01:40:52.808Z,75.18
2023-01-07T01:43:30.311Z,75.46
2023-01-07T01:45:58.304Z,73.93
2023-01-07T01:48:25.565Z,73.07
2023-01-07T01:50:53.222Z,72.74
2023-01-07T01:53:20.119Z,73.79
2023-01-07T01:55:49.543Z,74.40
2023-01-07T01:58:18.397Z,79.54
2023-01-07T02:00:45.143Z,76.66
2023-01-07T02:03:13.548Z,75.68
2023-01-07T02:05:42.326Z,75.29
2023-01-07T02:08:09.731Z,74.59
2023-01-07T02:10:36.592Z,73.48
2023-01-07T02:13:09.638Z,73.96
2023-01-07T02:15:48.382Z,72.92
2023-01-07T02:18:18.239Z,73.39
2023-01-07T02:20:44.911Z,74.00
2023-01-07T02:23:11.519Z,74.92
2023-01-07T02:25:42.210Z,90.10
2023-01-07T02:28:12.046Z,83.10
2023-01-07T02:30:50.844Z,84.35
2023-01-07T02:33:22.890Z,88.32
2023-01-07T02:35:50.064Z,83.76
2023-01-07T02:38:35.112Z,92.65
2023-01-07T02:41:13.578Z,91.38
2023-01-07T02:43:48.824Z,94.89
2023-01-07T02:46:17.736Z,94.13
2023-01-07T02:48:45.875Z,90.42
2023-01-07T02:51:13.486Z,92.03
2023-01-07T02:53:42.751Z,88.96
2023-01-07T02:56:24.953Z,90.93
2023-01-07T02:59:10.568Z,89.96
2023-01-07T03:01:46.770Z,87.04
2023-01-07T03:04:26.333Z,85.99
2023-01-07T03:06:56.459Z,84.58
2023-01-07T03:09:45.108Z,83.63
2023-01-07T03:12:11.796Z,83.16
2023-01-07T03:14:50.528Z,81.16
2023-01-07T03:17:21.694Z,79.30
2023-01-07T03:19:56.069Z,78.23
2023-01-07T03:22:24.368Z,76.65
2023-01-07T03:24:52.444Z,76.33
2023-01-07T03:27:20.962Z,75.43
2023-01-07T03:29:52.746Z,74.99
2023-01-07T03:32:29.350Z,73.67
2023-01-07T03:34:59.202Z,72.40
2023-01-07T03:37:27.460Z,74.14
2023-01-07T03:39:54.577Z,76.17
2023-01-07T03:42:41.192Z,75.15
2023-01-07T03:45:17.946Z,74.57
2023-01-07T03:47:48.239Z,73.91
2023-01-07T03:50:15.721Z,73.46
2023-01-07T03:52:42.807Z,72.73
2023-01-07T03:55:11.158Z,73.18
2023-01-07T03:57:38.101Z,73.27
2023-01-07T04:00:06.763Z,73.26
2023-01-07T04:02:33.487Z,72.61
2023-01-07T04:05:00.575Z,72.05
2023-01-07T04:07:27.990Z,71.92
2023-01-07T04:09:58.060Z,71.56
2023-01-07T04:12:25.826Z,72.35
2023-01-07T04:14:52.542Z,72.67
2023-01-07T04:17:19.347Z,73.39
2023-01-07T04:19:46.241Z,73.23
2023-01-07T04:22:13.527Z,72.87
2023-01-07T04:24:40.270Z,72.93
2023-01-07T04:27:08.357Z,74.22
2023-01-07T04:29:38.125Z,73.33
2023-01-07T04:32:05.080Z,73.70
2023-01-07T04:34:31.957Z,73.41
2023-01-07T04:37:01.229Z,73.07
2023-01-07T04:39:28.082Z,72.80
2023-01-07T04:41:55.113Z,72.90
2023-01-07T04:44:21.962Z,73.64
2023-01-07T04:46:49.349Z,72.39
2023-01-07T04:49:16.867Z,73.75
2023-01-07T04:51:43.769Z,73.19
2023-01-07T04:54:10.851Z,74.08
2023-01-07T04:56:37.730Z,74.14
2023-01-07T04:59:04.458Z,74.00
2023-01-07T05:01:33.609Z,73.65
2023-01-07T05:04:07.016Z,74.44
2023-01-07T05:06:34.826Z,73.64
2023-01-07T05:09:01.758Z,73.81
2023-01-07T05:11:28.677Z,72.69
2023-01-07T05:13:57.775Z,72.89
2023-01-07T05:16:27.384Z,73.65
2023-01-07T05:18:55.306Z,72.96
2023-01-07T05:21:22.227Z,73.10
2023-01-07T05:23:49.120Z,72.82
2023-01-07T05:26:16.058Z,72.57
2023-01-07T05:28:43.288Z,72.90
2023-01-07T05:31:10.092Z,72.65
2023-01-07T05:33:38.263Z,72.70
2023-01-07T05:36:05.832Z,72.40
2023-01-07T05:38:34.680Z,73.93
2023-01-07T05:41:03.414Z,73.27
2023-01-07T05:43:31.025Z,72.79
2023-01-07T05:45:59.349Z,72.30
2023-01-07T05:48:26.507Z,73.55
2023-01-07T05:50:54.993Z,73.95
2023-01-07T05:53:21.702Z,73.60
2023-01-07T05:55:48.575Z,73.73
2023-01-07T05:58:15.739Z,72.83
2023-01-07T06:00:45.650Z,75.88
2023-01-07T06:03:12.849Z,77.37
2023-01-07T06:05:40.124Z,78.14
2023-01-07T06:08:06.957Z,77.66
2023-01-07T06:10:33.973Z,76.41
2023-01-07T06:13:02.454Z,75.08
2023-01-07T06:15:29.213Z,75.73
2023-01-07T06:17:56.647Z,76.26
2023-01-07T06:20:25.939Z,75.55
2023-01-07T06:22:55.228Z,76.83
2023-01-07T06:25:23.512Z,77.56
2023-01-07T06:27:50.253Z,79.50
2023-01-07T06:30:18.082Z,80.85
2023-01-07T06:32:44.996Z,79.87
2023-01-07T06:35:12.443Z,77.84
2023-01-07T06:37:40.075Z,78.95
2023-01-07T06:40:07.947Z,78.16
2023-01-07T06:42:35.072Z,78.45
2023-01-07T06:45:02.044Z,78.57
2023-01-07T06:47:29.001Z,77.97
2023-01-07T06:49:56.046Z,78.54
2023-01-07T06:52:23.867Z,78.88
2023-01-07T06:54:50.647Z,78.12
2023-01-07T06:57:17.633Z,78.23
2023-01-07T06:59:44.352Z,78.70
2023-01-07T07:02:23.192Z,79.85
2023-01-07T07:04:50.099Z,82.47
2023-01-07T07:07:17.494Z,82.62
2023-01-07T07:09:47.913Z,82.00
2023-01-07T07:12:14.862Z,84.12
2023-01-07T07:14:42.114Z,84.91
2023-01-07T07:17:09.744Z,85.47
2023-01-07T07:19:36.636Z,89.18
2023-01-07T07:22:04.902Z,89.55
2023-01-07T07:24:32.093Z,87.75
2023-01-07T07:27:00.861Z,87.13
2023-01-07T07:29:27.934Z,89.82
2023-01-07T07:32:04.447Z,89.63
2023-01-07T07:34:31.201Z,89.19
2023-01-07T07:36:59.213Z,87.41
2023-01-07T07:39:26.003Z,85.67
2023-01-07T07:41:53.625Z,85.49
2023-01-07T07:44:20.506Z,86.94
2023-01-07T07:46:48.188Z,89.02
2023-01-07T07:49:15.936Z,88.79
2023-01-07T07:51:43.131Z,87.81
2023-01-07T07:54:11.440Z,89.04
2023-01-07T07:56:38.557Z,90.10
2023-01-07T07:59:05.680Z,86.45
2023-01-07T08:01:33.933Z,84.66
2023-01-07T08:04:02.587Z,82.39
2023-01-07T08:06:29.422Z,81.79
2023-01-07T08:08:56.913Z,81.32
2023-01-07T08:11:24.536Z,86.79
2023-01-07T08:13:51.285Z,86.55
2023-01-07T08:16:19.589Z,87.10
2023-01-07T08:18:46.801Z,85.50
2023-01-07T08:21:15.684Z,83.01
2023-01-07T08:23:44.654Z,81.92
2023-01-07T08:26:13.732Z,77.26
2023-01-07T08:28:40.576Z,73.91
2023-01-07T08:31:10.410Z,72.82
2023-01-07T08:33:41.618Z,72.73
2023-01-07T08:36:21.968Z,70.65
2023-01-07T08:38:50.570Z,69.38
2023-01-07T08:41:17.696Z,66.22
2023-01-07T08:43:45.569Z,64.27
2023-01-07T08:46:12.315Z,63.01
2023-01-07T08:48:40.484Z,61.24
2023-01-07T08:51:09.181Z,59.44
2023-01-07T08:53:36.001Z,58.79
2023-01-07T08:56:02.933Z,57.05
2023-01-07T08:58:33.401Z,56.17
2023-01-07T09:01:05.086Z,55.97
2023-01-07T09:03:32.120Z,55.24
2023-01-07T09:05:59.146Z,55.53
2023-01-07T09:08:27.949Z,54.66
2023-01-07T09:10:54.844Z,53.73
2023-01-07T09:13:21.588Z,53.30
2023-01-07T09:15:48.552Z,53.34
2023-01-07T09:18:15.821Z,54.47
2023-01-07T09:20:45.939Z,54.48
2023-01-07T09:23:14.760Z,53.66
2023-01-07T09:25:41.819Z,53.25
2023-01-07T09:28:12.132Z,52.51
2023-01-07T09:30:39.585Z,51.08
2023-01-07T09:33:06.679Z,53.20
2023-01-07T09:35:33.915Z,53.25
2023-01-07T09:38:01.499Z,53.67
2023-01-07T09:40:39.358Z,54.17
2023-01-07T09:43:25.939Z,54.95
2023-01-07T09:46:15.288Z,55.42
2023-01-07T09:48:45.530Z,56.20
2023-01-07T09:51:22.160Z,55.13
2023-01-07T09:53:50.703Z,55.90
2023-01-07T09:56:25.450Z,56.20
2023-01-07T09:58:52.467Z,56.70
2023-01-07T10:01:36.293Z,56.56
2023-01-07T10:04:21.699Z,56.91
2023-01-07T10:06:51.591Z,56.35
2023-01-07T10:09:21.439Z,56.84
2023-01-07T10:12:00.647Z,56.75
2023-01-07T10:14:27.323Z,56.18
2023-01-07T10:17:06.106Z,56.21
2023-01-07T10:19:38.759Z,56.47
2023-01-07T10:22:11.801Z,55.79
2023-01-07T10:24:43.512Z,56.12
2023-01-07T10:27:13.567Z,55.71
2023-01-07T10:29:46.211Z,56.32
2023-01-07T10:32:17.890Z,56.38
2023-01-07T10:34:46.541Z,56.93
2023-01-07T10:37:23.939Z,55.79
2023-01-07T10:40:13.684Z,56.03
2023-01-07T10:42:56.889Z,55.66
2023-01-07T10:45:29.783Z,55.09
2023-01-07T10:48:17.057Z,56.15
2023-01-07T10:50:46.140Z,55.35
2023-01-07T10:53:19.391Z,54.91
2023-01-07T10:55:46.821Z,55.17
2023-01-07T10:58:14.758Z,54.88
2023-01-07T11:00:47.001Z,54.79
2023-01-07T11:03:18.751Z,53.19
2023-01-07T11:05:49.012Z,53.96
2023-01-07T11:08:27.819Z,54.61
2023-01-07T11:10:54.611Z,54.62
2023-01-07T11:13:30.810Z,53.40
2023-01-07T11:16:03.012Z,52.03
2023-01-07T11:18:54.710Z,51.88
2023-01-07T11:21:44.814Z,52.39
2023-01-07T11:24:31.544Z,54.65
2023-01-07T11:27:03.182Z,55.05
2023-01-07T11:29:44.049Z,54.25
2023-01-07T11:32:28.968Z,54.32
2023-01-07T11:34:57.250Z,54.44
2023-01-07T11:37:38.750Z,54.24
2023-01-07T11:40:12.357Z,53.75
2023-01-07T11:42:54.064Z,53.91
2023-01-07T11:45:23.416Z,53.85
2023-01-07T11:48:02.767Z,52.67
2023-01-07T11:50:29.798Z,52.57
2023-01-07T11:53:17.209Z,51.81
2023-01-07T11:56:08.846Z,50.98
2023-01-07T11:58:39.483Z,50.40
2023-01-07T12:01:09.634Z,48.14
2023-01-07T12:03:37.125Z,47.96
2023-01-07T12:06:07.875Z,48.47
2023-01-07T12:08:35.650Z,48.21
2023-01-07T12:11:07.329Z,48.55
2023-01-07T12:13:35.085Z,47.95
2023-01-07T12:16:07.304Z,48.02
2023-01-07T12:18:40.805Z,47.93
2023-01-07T12:21:17.532Z,47.49
2023-01-07T12:24:00.005Z,48.28
2023-01-07T12:26:31.892Z,48.87
2023-01-07T12:29:39.157Z,48.73
2023-01-07T12:32:06.424Z,48.82
2023-01-07T12:34:33.555Z,48.30
2023-01-07T12:37:01.779Z,48.60
2023-01-07T12:39:34.794Z,49.10
2023-01-07T12:42:04.773Z,49.54
2023-01-07T12:44:32.074Z,48.91
2023-01-07T12:47:31.764Z,48.58
2023-01-07T12:49:54.492Z,48.50
2023-01-07T12:52:40.233Z,48.55
2023-01-07T12:55:21.137Z,48.99
2023-01-07T12:58:01.185Z,48.51
2023-01-07T13:00:31.712Z,48.15
2023-01-07T13:03:17.272Z,47.98
2023-01-07T13:05:49.021Z,48.15
2023-01-07T13:08:34.622Z,48.04
2023-01-07T13:11:12.754Z,48.17
2023-01-07T13:13:42.217Z,48.95
2023-01-07T13:16:12.222Z,49.56
2023-01-07T13:18:39.260Z,54.00
2023-01-07T13:21:06.752Z,57.36
2023-01-07T13:23:37.238Z,55.17
2023-01-07T13:26:19.174Z,56.12
2023-01-07T13:28:51.950Z,60.98
2023-01-07T13:31:19.199Z,62.98
2023-01-07T13:34:02.515Z,60.22
2023-01-07T13:36:39.953Z,60.40
2023-01-07T13:39:19.393Z,64.39
2023-01-07T13:41:52.137Z,69.42
2023-01-07T13:44:18.892Z,67.12
2023-01-07T13:46:47.390Z,68.10
2023-01-07T13:49:28.776Z,70.12
2023-01-07T13:51:57.040Z,69.63
2023-01-07T13:55:03.692Z,72.08
2023-01-07T13:57:30.591Z,71.63
2023-01-07T13:59:58.917Z,74.99
2023-01-07T14:02:29.241Z,74.71
2023-01-07T14:05:12.310Z,82.13
2023-01-07T14:07:58.317Z,82.13
2023-01-07T14:10:33.135Z,83.55
2023-01-07T14:13:20.941Z,83.68
2023-01-07T14:16:06.688Z,82.23
2023-01-07T14:18:42.939Z,86.28
2023-01-07T14:21:28.674Z,82.26
2023-01-07T14:24:25.152Z,88.32
2023-01-07T14:26:51.872Z,83.56
2023-01-07T14:29:37.084Z,84.75
2023-01-07T14:32:27.727Z,82.44
2023-01-07T14:35:07.783Z,82.90
2023-01-07T14:37:36.442Z,84.40
2023-01-07T14:40:24.967Z,85.81
2023-01-07T14:42:54.170Z,85.76
2023-01-07T14:45:39.385Z,86.67
2023-01-07T14:48:10.191Z,86.65
2023-01-07T14:50:55.998Z,87.14
2023-01-07T14:53:25.458Z,85.43
2023-01-07T14:56:04.956Z,90.63
2023-01-07T14:58:32.886Z,89.36
2023-01-07T15:01:18.636Z,86.96
2023-01-07T15:03:48.435Z,90.03
2023-01-07T15:06:25.464Z,89.98
2023-01-07T15:09:23.366Z,92.66
2023-01-07T15:12:11.492Z,93.42
2023-01-07T15:15:03.221Z,92.44
2023-01-07T15:17:30.774Z,93.10
2023-01-07T15:19:59.781Z,90.99
2023-01-07T15:22:32.752Z,92.17
2023-01-07T15:25:07.282Z,91.84
2023-01-07T15:27:42.491Z,89.94
2023-01-07T15:30:10.652Z,89.21
2023-01-07T15:33:02.396Z,86.66
2023-01-07T15:35:33.068Z,93.80
2023-01-07T15:38:04.527Z,100.00
2023-01-07T15:40:31.838Z,97.55
2023-01-07T15:42:59.480Z,99.57
2023-01-07T15:45:28.370Z,94.52
2023-01-07T15:48:05.249Z,91.28
2023-01-07T15:50:34.173Z,89.39
2023-01-07T15:53:04.086Z,86.47
2023-01-07T15:55:38.238Z,86.50
2023-01-07T15:58:08.371Z,85.46
2023-01-07T16:00:35.890Z,83.17
2023-01-07T16:03:06.141Z,82.42
2023-01-07T16:05:33.392Z,80.54
2023-01-07T16:08:01.995Z,78.70
2023-01-07T16:10:35.952Z,77.93
2023-01-07T16:13:06.602Z,76.11
2023-01-07T16:15:36.164Z,75.58
2023-01-07T16:18:09.172Z,74.35
2023-01-07T16:20:38.221Z,73.29
2023-01-07T16:23:11.107Z,71.75
2023-01-07T16:25:40.822Z,71.42
2023-01-07T16:28:08.368Z,70.42
2023-01-07T16:30:39.211Z,74.59
2023-01-07T16:33:06.506Z,80.58
2023-01-07T16:35:34.967Z,75.77
2023-01-07T16:38:06.462Z,74.88
2023-01-07T16:40:37.202Z,75.48
2023-01-07T16:43:05.413Z,77.40
2023-01-07T16:45:33.553Z,83.98
2023-01-07T16:48:02.745Z,82.20
2023-01-07T16:50:31.964Z,82.69
2023-01-07T16:52:59.214Z,80.79
2023-01-07T16:55:46.841Z,86.32
2023-01-07T16:58:33.723Z,89.20
2023-01-07T17:01:01.980Z,88.65
2023-01-07T17:03:31.204Z,87.39
2023-01-07T17:06:06.660Z,87.48
2023-01-07T17:08:34.404Z,86.64
2023-01-07T17:11:08.940Z,84.96
2023-01-07T17:13:38.541Z,83.83
2023-01-07T17:16:23.655Z,83.54
2023-01-07T17:18:51.528Z,84.64
2023-01-07T17:21:34.656Z,84.38
2023-01-07T17:24:01.633Z,82.23
2023-01-07T17:26:28.962Z,83.34
2023-01-07T17:29:13.475Z,92.41
2023-01-07T17:31:43.290Z,88.52
2023-01-07T17:34:11.927Z,88.58
2023-01-07T17:36:40.313Z,88.44
2023-01-07T17:39:08.044Z,86.95
2023-01-07T17:41:54.925Z,90.45
2023-01-07T17:44:24.132Z,91.77
2023-01-07T17:46:52.470Z,89.09
2023-01-07T17:49:20.729Z,90.56
2023-01-07T17:51:48.811Z,87.12
2023-01-07T17:54:20.274Z,90.69
2023-01-07T17:56:48.110Z,92.46
2023-01-07T17:59:20.286Z,92.50
2023-01-07T18:01:47.924Z,90.54
2023-01-07T18:04:15.715Z,90.33
2023-01-07T18:06:46.694Z,93.19
2023-01-07T18:09:14.076Z,95.19
2023-01-07T18:12:04.701Z,100.00
2023-01-07T18:14:33.016Z,100.00
2023-01-07T18:17:00.869Z,100.00
2023-01-07T18:19:27.795Z,100.00
2023-01-07T18:21:58.727Z,100.00
2023-01-07T18:24:27.764Z,100.00
2023-01-07T18:26:56.944Z,100.00
2023-01-07T18:29:28.691Z,100.00
2023-01-07T18:31:56.603Z,100.00
2023-01-07T18:34:24.682Z,100.00
2023-01-07T18:36:54.433Z,100.00
2023-01-07T18:39:23.521Z,100.00
2023-01-07T18:41:50.664Z,100.00
2023-01-07T18:44:19.073Z,97.89
2023-01-07T18:46:46.638Z,100.00
2023-01-07T18:49:16.762Z,100.00
2023-01-07T18:51:45.352Z,100.00
2023-01-07T18:54:12.587Z,100.00
2023-01-07T18:56:42.722Z,100.00
2023-01-07T18:59:09.617Z,100.00
2023-01-07T19:01:37.014Z,99.08
2023-01-07T19:04:05.439Z,100.00
2023-01-07T19:06:32.951Z,98.20
2023-01-07T19:08:59.930Z,96.47
2023-01-07T19:11:31.118Z,95.01
2023-01-07T19:13:58.598Z,93.33
2023-01-07T19:16:25.638Z,92.23
2023-01-07T19:18:53.538Z,90.29
2023-01-07T19:21:21.817Z,88.63
2023-01-07T19:23:49.128Z,87.89
2023-01-07T19:26:16.717Z,85.64
2023-01-07T19:28:46.572Z,84.26
2023-01-07T19:31:14.215Z,84.64
2023-01-07T19:33:40.937Z,83.46
2023-01-07T19:36:09.943Z,82.68
2023-01-07T19:38:41.812Z,82.80
2023-01-07T19:41:13.212Z,82.27
2023-01-07T19:43:41.073Z,82.42
2023-01-07T19:46:08.636Z,81.23
2023-01-07T19:48:36.330Z,80.76
2023-01-07T19:51:04.429Z,79.82
2023-01-07T19:53:31.774Z,79.04
2023-01-07T19:56:02.876Z,78.82
2023-01-07T19:58:29.844Z,78.90
2023-01-07T20:01:03.303Z,78.18
2023-01-07T20:03:31.053Z,78.22
2023-01-07T20:06:12.024Z,78.06
2023-01-07T20:08:41.238Z,78.98
2023-01-07T20:11:08.571Z,77.50
2023-01-07T20:13:36.502Z,77.55
2023-01-07T20:16:07.618Z,77.55
2023-01-07T20:18:38.491Z,77.78
2023-01-07T20:21:07.334Z,77.90
2023-01-07T20:23:40.953Z,77.54
2023-01-07T20:26:16.251Z,77.89
2023-01-07T20:28:44.448Z,77.45
2023-01-07T20:31:15.755Z,76.63
2023-01-07T20:33:42.821Z,78.53
2023-01-07T20:36:14.231Z,77.95
2023-01-07T20:38:41.537Z,77.99
2023-01-07T20:41:10.039Z,77.26
2023-01-07T20:43:37.633Z,76.71
2023-01-07T20:46:05.707Z,76.57
2023-01-07T20:48:33.323Z,75.92
2023-01-07T20:51:00.240Z,76.25
2023-01-07T20:53:29.010Z,75.70
2023-01-07T20:55:56.947Z,81.65
2023-01-07T20:58:23.918Z,78.83
2023-01-07T21:00:50.811Z,78.93
2023-01-07T21:03:17.964Z,78.69
2023-01-07T21:05:46.217Z,78.16
2023-01-07T21:08:13.456Z,78.06
2023-01-07T21:10:46.978Z,78.67
2023-01-07T21:13:13.919Z,79.52
2023-01-07T21:15:40.966Z,79.16
2023-01-07T21:18:08.052Z,78.46
2023-01-07T21:20:37.850Z,78.29
2023-01-07T21:23:04.953Z,77.74
2023-01-07T21:25:31.724Z,77.77
2023-01-07T21:27:58.821Z,77.09
2023-01-07T21:30:28.299Z,76.44
2023-01-07T21:32:56.519Z,76.48
2023-01-07T21:35:26.820Z,76.51
2023-01-07T21:37:54.710Z,76.86
2023-01-07T21:40:21.727Z,76.77
2023-01-07T21:42:48.549Z,77.65
2023-01-07T21:45:15.527Z,78.40
2023-01-07T21:47:42.960Z,80.72
2023-01-07T21:50:09.932Z,79.88
2023-01-07T21:52:36.783Z,79.39
2023-01-07T21:55:06.029Z,79.79
2023-01-07T21:57:36.226Z,81.13
2023-01-07T22:00:05.992Z,79.76
2023-01-07T22:02:32.789Z,80.39
2023-01-07T22:05:00.536Z,80.22
2023-01-07T22:07:27.792Z,79.08
2023-01-07T22:09:56.383Z,78.59
2023-01-07T22:12:26.849Z,78.49
2023-01-07T22:14:55.035Z,79.96
2023-01-07T22:17:26.231Z,77.94
2023-01-07T22:19:53.653Z,78.81
2023-01-07T22:22:21.160Z,77.97
2023-01-07T22:24:50.690Z,78.61
2023-01-07T22:27:18.623Z,79.31
2023-01-07T22:29:45.672Z,79.13
2023-01-07T22:32:13.731Z,79.27
2023-01-07T22:35:00.913Z,78.18
2023-01-07T22:37:30.114Z,79.65
2023-01-07T22:39:59.081Z,79.27
2023-01-07T22:42:45.604Z,84.47
2023-01-07T22:45:21.047Z,82.16
2023-01-07T22:47:50.601Z,81.83
2023-01-07T22:50:18.005Z,82.03
2023-01-07T22:52:47.028Z,84.14
2023-01-07T22:55:16.144Z,83.72
2023-01-07T22:57:45.875Z,82.67
2023-01-07T23:00:37.366Z,82.74
2023-01-07T23:03:04.219Z,82.15
2023-01-07T23:05:35.625Z,82.64
2023-01-07T23:10:44.206Z,80.92
2023-01-07T23:13:11.643Z,82.87
2023-01-07T23:15:39.107Z,84.74
2023-01-07T23:18:08.535Z,83.46
2023-01-07T23:20:38.513Z,83.33
2023-01-07T23:23:05.622Z,82.00
2023-01-07T23:25:33.830Z,81.45
2023-01-07T23:28:01.413Z,80.26
2023-01-07T23:30:28.290Z,80.27
2023-01-07T23:32:55.024Z,79.72
2023-01-07T23:35:31.681Z,78.81
2023-01-07T23:37:58.796Z,79.39
2023-01-07T23:40:26.023Z,85.12
2023-01-07T23:42:53.437Z,81.40
2023-01-07T23:45:24.781Z,81.26
2023-01-07T23:47:51.531Z,86.57
2023-01-07T23:50:18.584Z,83.69
2023-01-07T23:52:45.295Z,83.69
2023-01-07T23:55:19.017Z,82.89
2023-01-07T23:57:46.041Z,82.38
